Time,TemperatureF,DewpointF,PressureIn,WindDirection,WindDirectionDegrees,WindSpeedMPH,WindSpeedGustMPH,Humidity,HourlyPrecipIn,Conditions,Clouds,dailyrainin,SoftwareType,DateUTC
2013-04-01 00:14:00,54.0,53.4,29.58,ESE,112,1.7,-999.0,98,-99.99,,,0.00,Acu-Link.com,2013-04-01 04:14:00,
2013-04-01 00:30:00,53.6,53.0,29.58,East,90,1.7,-999.0,98,-99.99,,,0.00,Acu-Link.com,2013-04-01 04:30:00,
2013-04-01 00:45:00,53.2,52.6,29.58,East,90,0.0,-999.0,98,-99.99,,,0.00,Acu-Link.com,2013-04-01 04:45:00,
2013-04-01 01:00:00,53.1,52.5,29.59,WSW,247,0.0,-999.0,98,-99.99,,,0.00,Acu-Link.com,2013-04-01 05:00:00,
2013-04-01 01:15:00,52.2,51.7,29.58,NW,315,0.0,-999.0,98,-99.99,,,0.00,Acu-Link.com,2013-04-01 05:15:00,
2013-04-01 01:31:00,51.8,51.3,29.59,SSW,202,0.0,-999.0,98,-99.99,,,0.00,Acu-Link.com,2013-04-01 05:31:00,
2013-04-01 02:01:00,51.8,51.3,29.60,South,180,0.0,-999.0,98,-99.99,,,0.00,Acu-Link.com,2013-04-01 06:01:00,
2013-04-01 02:16:00,51.4,50.9,29.59,South,180,1.1,-999.0,98,-99.99,,,0.00,Acu-Link.com,2013-04-01 06:16:00,
2013-04-01 02:32:00,51.4,50.9,29.58,South,180,2.2,-999.0,98,-99.99,,,0.00,Acu-Link.com,2013-04-01 06:32:00,
2013-04-01 02:47:00,51.3,50.8,29.57,SSW,202,2.7,-999.0,98,-99.99,,,0.00,Acu-Link.com,2013-04-01 06:47:00,
2013-04-01 03:02:00,50.9,50.4,29.57,SSW,202,2.2,-999.0,98,-99.99,,,0.00,Acu-Link.com,2013-04-01 07:02:00,
2013-04-01 03:17:00,50.4,49.9,29.57,WSW,247,2.7,-999.0,98,-99.99,,,0.00,Acu-Link.com,2013-04-01 07:17:00,
2013-04-01 03:32:00,49.1,48.6,29.57,SSE,157,1.1,-999.0,98,-99.99,,,0.00,Acu-Link.com,2013-04-01 07:32:00,
2013-04-01 03:47:00,48.4,47.9,29.57,ESE,112,2.7,-999.0,98,-99.99,,,0.00,Acu-Link.com,2013-04-01 07:47:00,
2013-04-01 04:03:00,48.2,47.7,29.57,South,180,0.0,-999.0,98,-99.99,,,0.00,Acu-Link.com,2013-04-01 08:03:00,
2013-04-01 04:18:00,47.8,47.3,29.57,SE,135,1.1,-999.0,98,-99.99,,,0.00,Acu-Link.com,2013-04-01 08:18:00,
2013-04-01 04:33:00,47.1,46.6,29.57,ESE,112,0.0,-999.0,98,-99.99,,,0.00,Acu-Link.com,2013-04-01 08:33:00,
2013-04-01 04:48:00,46.2,45.7,29.58,WSW,247,0.0,-999.0,98,-99.99,,,0.00,Acu-Link.com,2013-04-01 08:48:00,
2013-04-01 05:04:00,46.4,45.9,29.58,NW,315,1.1,-999.0,98,-99.99,,,0.00,Acu-Link.com,2013-04-01 09:04:00,
2013-04-01 05:19:00,46.2,45.7,29.59,SE,135,1.7,-999.0,98,-99.99,,,0.00,Acu-Link.com,2013-04-01 09:19:00,
2013-04-01 05:34:00,46.2,45.7,29.60,SSE,157,0.0,-999.0,98,-99.99,,,0.00,Acu-Link.com,2013-04-01 09:34:00,
2013-04-01 05:49:00,46.2,45.7,29.60,SE,135,0.0,-999.0,98,-99.99,,,0.00,Acu-Link.com,2013-04-01 09:49:00,
2013-04-01 06:05:00,46.2,45.7,29.60,East,90,0.0,-999.0,98,-99.99,,,0.00,Acu-Link.com,2013-04-01 10:05:00,
2013-04-01 06:20:00,46.6,46.1,29.60,ESE,112,0.0,-999.0,98,-99.99,,,0.00,Acu-Link.com,2013-04-01 10:20:00,
2013-04-01 06:35:00,45.7,45.2,29.61,ESE,112,2.2,-999.0,98,-99.99,,,0.00,Acu-Link.com,2013-04-01 10:35:00,
2013-04-01 06:50:00,45.7,45.2,29.61,East,90,2.2,-999.0,98,-99.99,,,0.00,Acu-Link.com,2013-04-01 10:50:00,
2013-04-01 07:21:00,45.9,45.4,29.62,ESE,112,1.1,-999.0,98,-99.99,,,0.00,Acu-Link.com,2013-04-01 11:21:00,
2013-04-01 07:36:00,45.9,45.4,29.63,South,180,0.0,-999.0,98,-99.99,,,0.00,Acu-Link.com,2013-04-01 11:36:00,
2013-04-01 08:07:00,47.5,47.0,29.64,SSE,157,4.2,-999.0,98,-99.99,,,0.00,Acu-Link.com,2013-04-01 12:07:00,
2013-04-01 08:38:00,50.4,49.9,29.64,SSE,157,4.2,-999.0,98,-99.99,,,0.00,Acu-Link.com,2013-04-01 12:38:00,
2013-04-01 08:53:00,51.8,51.3,29.64,SSW,202,2.2,-999.0,98,-99.99,,,0.00,Acu-Link.com,2013-04-01 12:53:00,
2013-04-01 09:08:00,53.1,51.7,29.65,ESE,112,3.7,-999.0,95,-99.99,,,0.00,Acu-Link.com,2013-04-01 13:08:00,
2013-04-01 09:23:00,54.1,51.2,29.65,South,180,3.2,-999.0,90,-99.99,,,0.00,Acu-Link.com,2013-04-01 13:23:00,
2013-04-01 09:38:00,55.9,50.5,29.65,SSE,157,3.2,-999.0,82,-99.99,,,0.00,Acu-Link.com,2013-04-01 13:38:00,
2013-04-01 09:54:00,58.1,52.3,29.64,East,90,3.7,-999.0,81,-99.99,,,0.00,Acu-Link.com,2013-04-01 13:54:00,
2013-04-01 10:09:00,59.9,52.3,29.64,ESE,112,4.7,-999.0,76,-99.99,,,0.00,Acu-Link.com,2013-04-01 14:09:00,
2013-04-01 10:24:00,61.3,52.6,29.64,South,180,2.2,-999.0,73,-99.99,,,0.00,Acu-Link.com,2013-04-01 14:24:00,
2013-04-01 10:40:00,64.6,53.0,29.65,SW,225,1.7,-999.0,66,-99.99,,,0.00,Acu-Link.com,2013-04-01 14:40:00,
2013-04-01 10:55:00,65.7,51.9,29.64,SSW,202,4.7,-999.0,61,-99.99,,,0.00,Acu-Link.com,2013-04-01 14:55:00,
2013-04-01 11:10:00,65.1,49.5,29.64,SW,225,4.7,-999.0,57,-99.99,,,0.00,Acu-Link.com,2013-04-01 15:10:00,
2013-04-01 11:26:00,62.6,48.1,29.66,West,270,5.8,-999.0,59,-99.99,,,0.00,Acu-Link.com,2013-04-01 15:26:00,
2013-04-01 11:41:00,61.2,48.9,29.65,SE,135,5.8,-999.0,64,-99.99,,,0.00,Acu-Link.com,2013-04-01 15:41:00,
2013-04-01 11:56:00,60.8,49.4,29.65,SW,225,3.2,-999.0,66,-99.99,,,0.00,Acu-Link.com,2013-04-01 15:56:00,
2013-04-01 12:26:00,63.7,50.4,29.65,West,270,9.4,-999.0,62,-99.99,,,0.00,Acu-Link.com,2013-04-01 16:26:00,
2013-04-01 12:41:00,62.8,49.6,29.64,SSW,202,7.3,-999.0,62,-99.99,,,0.00,Acu-Link.com,2013-04-01 16:41:00,
2013-04-01 12:57:00,63.1,49.0,29.63,WNW,292,4.2,-999.0,60,-99.99,,,0.00,Acu-Link.com,2013-04-01 16:57:00,
2013-04-01 13:12:00,64.8,48.7,29.63,SW,225,4.7,-999.0,56,-99.99,,,0.00,Acu-Link.com,2013-04-01 17:12:00,
2013-04-01 13:27:00,65.1,49.0,29.63,SSW,202,3.7,-999.0,56,-99.99,,,0.00,Acu-Link.com,2013-04-01 17:27:00,
2013-04-01 13:42:00,64.0,48.5,29.63,SW,225,6.8,-999.0,57,-99.99,,,0.00,Acu-Link.com,2013-04-01 17:42:00,
2013-04-01 13:57:00,63.1,48.1,29.63,West,270,4.2,-999.0,58,-99.99,,,0.00,Acu-Link.com,2013-04-01 17:57:00,
2013-04-01 14:13:00,62.1,48.9,29.63,SSW,202,4.2,-999.0,62,-99.99,,,0.00,Acu-Link.com,2013-04-01 18:13:00,
2013-04-01 14:28:00,61.5,48.4,29.63,SW,225,7.3,-999.0,62,-99.99,,,0.00,Acu-Link.com,2013-04-01 18:28:00,
2013-04-01 14:43:00,62.8,49.6,29.63,West,270,2.7,-999.0,62,-99.99,,,0.00,Acu-Link.com,2013-04-01 18:43:00,
2013-04-01 14:58:00,62.6,49.0,29.61,SW,225,6.8,-999.0,61,-99.99,,,0.00,Acu-Link.com,2013-04-01 18:58:00,
2013-04-01 15:13:00,61.9,48.3,29.62,SSW,202,5.3,-999.0,61,-99.99,,,0.00,Acu-Link.com,2013-04-01 19:13:00,
2013-04-01 15:29:00,61.7,49.0,29.62,WSW,247,6.3,-999.0,63,-99.99,,,0.00,Acu-Link.com,2013-04-01 19:29:00,
2013-04-01 15:44:00,63.0,49.3,29.62,SSW,202,8.3,-999.0,61,-99.99,,,0.00,Acu-Link.com,2013-04-01 19:44:00,
2013-04-01 15:59:00,62.6,50.2,29.62,South,180,5.3,-999.0,64,-99.99,,,0.00,Acu-Link.com,2013-04-01 19:59:00,
2013-04-01 16:14:00,61.3,49.0,29.61,SSW,202,5.3,-999.0,64,-99.99,,,0.00,Acu-Link.com,2013-04-01 20:14:00,
2013-04-01 16:29:00,60.8,48.1,29.62,South,180,7.3,-999.0,63,-99.99,,,0.00,Acu-Link.com,2013-04-01 20:29:00,
2013-04-01 16:44:00,60.8,48.5,29.61,South,180,3.7,-999.0,64,-99.99,,,0.00,Acu-Link.com,2013-04-01 20:44:00,
2013-04-01 16:59:00,60.4,47.3,29.61,SW,225,3.7,-999.0,62,-99.99,,,0.00,Acu-Link.com,2013-04-01 20:59:00,
2013-04-01 17:14:00,60.8,47.7,29.61,WSW,247,6.3,-999.0,62,-99.99,,,0.00,Acu-Link.com,2013-04-01 21:14:00,
2013-04-01 17:29:00,61.0,47.5,29.62,South,180,4.2,-999.0,61,-99.99,,,0.00,Acu-Link.com,2013-04-01 21:29:00,
2013-04-01 17:44:00,60.6,46.2,29.61,West,270,9.4,-999.0,59,-99.99,,,0.00,Acu-Link.com,2013-04-01 21:44:00,
2013-04-01 18:00:00,60.3,46.4,29.62,South,180,8.3,-999.0,60,-99.99,,,0.00,Acu-Link.com,2013-04-01 22:00:00,
2013-04-01 18:15:00,59.9,46.4,29.61,South,180,5.3,-999.0,61,-99.99,,,0.00,Acu-Link.com,2013-04-01 22:15:00,
2013-04-01 18:30:00,59.7,44.9,29.62,WSW,247,3.2,-999.0,58,-99.99,,,0.00,Acu-Link.com,2013-04-01 22:30:00,
2013-04-01 18:45:00,59.2,44.9,29.63,WSW,247,2.7,-999.0,59,-99.99,,,0.00,Acu-Link.com,2013-04-01 22:45:00,
2013-04-01 19:00:00,59.2,45.3,29.63,SSW,202,1.7,-999.0,60,-99.99,,,0.00,Acu-Link.com,2013-04-01 23:00:00,
2013-04-01 19:15:00,58.6,45.2,29.63,SSW,202,4.7,-999.0,61,-99.99,,,0.00,Acu-Link.com,2013-04-01 23:15:00,
2013-04-01 19:46:00,56.5,44.1,29.64,SSW,202,8.3,-999.0,63,-99.99,,,0.00,Acu-Link.com,2013-04-01 23:46:00,
2013-04-01 20:01:00,56.3,43.4,29.65,West,270,5.8,-999.0,62,-99.99,,,0.00,Acu-Link.com,2013-04-02 00:01:00,
2013-04-01 20:32:00,55.0,43.0,29.65,SW,225,3.7,-999.0,64,-99.99,,,0.00,Acu-Link.com,2013-04-02 00:32:00,
2013-04-01 20:47:00,54.0,42.9,29.66,SSW,202,2.7,-999.0,66,-99.99,,,0.00,Acu-Link.com,2013-04-02 00:47:00,
2013-04-01 21:03:00,53.4,42.7,29.67,SSW,202,1.7,-999.0,67,-99.99,,,0.00,Acu-Link.com,2013-04-02 01:03:00,
2013-04-01 21:18:00,52.5,42.2,29.67,SW,225,1.1,-999.0,68,-99.99,,,0.00,Acu-Link.com,2013-04-02 01:18:00,
2013-04-01 21:33:00,51.4,41.6,29.68,SW,225,0.0,-999.0,69,-99.99,,,0.00,Acu-Link.com,2013-04-02 01:33:00,
2013-04-01 21:48:00,50.0,41.3,29.68,SSW,202,2.7,-999.0,72,-99.99,,,0.00,Acu-Link.com,2013-04-02 01:48:00,
2013-04-01 22:04:00,50.4,40.2,29.69,South,180,1.7,-999.0,68,-99.99,,,0.00,Acu-Link.com,2013-04-02 02:04:00,
2013-04-01 22:19:00,49.6,41.3,29.71,ESE,112,2.2,-999.0,73,-99.99,,,0.00,Acu-Link.com,2013-04-02 02:19:00,
2013-04-01 22:34:00,48.2,41.7,29.72,NE,45,1.1,-999.0,78,-99.99,,,0.00,Acu-Link.com,2013-04-02 02:34:00,
2013-04-01 22:49:00,47.1,41.9,29.72,SW,225,2.2,-999.0,82,-99.99,,,0.00,Acu-Link.com,2013-04-02 02:49:00,
2013-04-01 23:05:00,46.4,41.5,29.73,SW,225,2.7,-999.0,83,-99.99,,,0.00,Acu-Link.com,2013-04-02 03:05:00,
2013-04-01 23:20:00,46.2,41.3,29.74,West,270,3.7,-999.0,83,-99.99,,,0.00,Acu-Link.com,2013-04-02 03:20:00,
2013-04-01 23:35:00,45.9,41.0,29.75,SW,225,4.2,-999.0,83,-99.99,,,0.00,Acu-Link.com,2013-04-02 03:35:00,
2013-04-01 23:51:00,45.5,40.6,29.74,SW,225,2.7,-999.0,83,-99.99,,,0.00,Acu-Link.com,2013-04-02 03:51:00,